Mattoon, Illinois
Current Conditions -  °F | °C
As of 3:53 PM on Sunday 23 Nov 2014 (Local Time) from KMTO Reporting Station
Moderate Rain Moderate Rain  
Wind Chill: 51°   Ceiling: 500
Heat Index: 51°   Visibility: 10mi
Dew Point: 50°   Wind: 9mph
Humidity: 96%   Direction: 140°SE
Pressure: 29.4"   Gusts: NA
Location:  39.48°N, 88.37°W
Report Text: KMTO 232153Z AUTO 14008KT 10SM RA OVC005 11/10 A2940 RMK AO2 SLP955 P0007 T01060100
Loading
Personal Weather Stations






























Interactive Weather Map New forecast layout! Learn more

10-Day Weather Forecast

Advertisements
Track Severe Weather on mobile